createdAt,value
2019-05-10T00:01:58.548Z,13.90
2019-05-10T00:04:47.128Z,13.73
2019-05-10T00:07:34.589Z,13.50
2019-05-10T00:10:05.712Z,13.50
2019-05-10T00:12:37.667Z,13.40
2019-05-10T00:15:09.837Z,13.40
2019-05-10T00:17:39.254Z,13.44
2019-05-10T00:20:09.203Z,13.38
2019-05-10T00:22:38.601Z,13.34
2019-05-10T00:25:09.555Z,13.34
2019-05-10T00:27:38.963Z,13.31
2019-05-10T00:30:11.965Z,13.32
2019-05-10T00:32:42.622Z,13.23
2019-05-10T00:35:12.192Z,13.22
2019-05-10T00:37:41.553Z,13.28
2019-05-10T00:40:11.239Z,13.29
2019-05-10T00:42:43.061Z,13.38
2019-05-10T00:45:14.799Z,13.46
2019-05-10T00:47:44.178Z,13.28
2019-05-10T00:50:13.688Z,13.26
2019-05-10T00:52:43.120Z,13.18
2019-05-10T00:55:18.796Z,13.17
2019-05-10T00:57:46.952Z,13.29
2019-05-10T01:00:17.717Z,13.47
2019-05-10T01:02:48.175Z,13.37
2019-05-10T01:05:20.670Z,13.44
2019-05-10T01:07:49.455Z,13.32
2019-05-10T01:10:19.916Z,13.28
2019-05-10T01:12:51.576Z,13.20
2019-05-10T01:15:21.611Z,13.27
2019-05-10T01:17:51.968Z,13.31
2019-05-10T01:20:22.390Z,13.58
2019-05-10T01:22:54.704Z,13.75
2019-05-10T01:25:34.481Z,13.88
2019-05-10T01:27:57.816Z,13.86
2019-05-10T01:30:27.177Z,14.02
2019-05-10T01:32:56.445Z,14.03
2019-05-10T01:35:26.807Z,14.14
2019-05-10T01:37:56.198Z,14.16
2019-05-10T01:40:25.550Z,14.15
2019-05-10T01:42:56.032Z,14.04
2019-05-10T01:45:26.429Z,14.03
2019-05-10T01:47:56.561Z,14.01
2019-05-10T01:50:26.932Z,14.08
2019-05-10T01:53:00.468Z,14.03
2019-05-10T01:55:30.991Z,14.01
2019-05-10T01:58:00.375Z,14.02
2019-05-10T02:00:30.968Z,13.99
2019-05-10T02:03:04.073Z,13.94
2019-05-10T02:05:38.027Z,14.01
2019-05-10T02:08:07.654Z,14.09
2019-05-10T02:10:36.155Z,14.04
2019-05-10T02:13:05.531Z,14.09
2019-05-10T02:15:34.948Z,13.90
2019-05-10T02:18:05.460Z,13.92
2019-05-10T02:20:34.940Z,13.98
2019-05-10T02:23:07.105Z,13.80
2019-05-10T02:25:37.617Z,13.58
2019-05-10T02:28:07.091Z,13.50
2019-05-10T02:30:38.971Z,13.46
2019-05-10T02:33:08.355Z,13.53
2019-05-10T02:35:38.639Z,13.60
2019-05-10T02:38:08.135Z,13.53
2019-05-10T02:40:38.603Z,13.64
2019-05-10T02:43:07.471Z,13.73
2019-05-10T02:45:37.837Z,13.79
2019-05-10T02:48:09.263Z,13.79
2019-05-10T02:50:41.173Z,13.81
2019-05-10T02:53:11.359Z,13.79
2019-05-10T02:55:43.133Z,13.84
2019-05-10T02:58:15.312Z,13.90
2019-05-10T03:00:48.746Z,13.88
2019-05-10T03:03:18.818Z,13.99
2019-05-10T03:05:52.721Z,13.97
2019-05-10T03:08:25.389Z,13.99
2019-05-10T03:10:59.240Z,13.98
2019-05-10T03:13:33.603Z,13.87
2019-05-10T03:16:04.367Z,13.69
2019-05-10T03:18:35.902Z,13.76
2019-05-10T03:21:08.104Z,13.78
2019-05-10T03:23:38.464Z,13.71
2019-05-10T03:26:07.849Z,13.58
2019-05-10T03:28:39.377Z,13.49
2019-05-10T03:31:08.529Z,13.50
2019-05-10T03:33:38.081Z,13.60
2019-05-10T03:36:08.144Z,13.48
2019-05-10T03:38:38.922Z,13.61
2019-05-10T03:41:08.322Z,13.51
2019-05-10T03:43:38.678Z,13.54
2019-05-10T03:46:08.302Z,13.54
2019-05-10T03:48:38.982Z,13.16
2019-05-10T03:51:09.478Z,13.00
2019-05-10T03:53:38.847Z,12.93
2019-05-10T03:56:08.349Z,13.02
2019-05-10T03:58:37.780Z,13.17
2019-05-10T04:01:08.172Z,13.35
2019-05-10T04:03:38.474Z,13.48
2019-05-10T04:06:10.554Z,13.43
2019-05-10T04:08:40.973Z,13.36
2019-05-10T04:11:11.375Z,13.39
2019-05-10T04:13:42.512Z,13.36
2019-05-10T04:16:11.863Z,13.32
2019-05-10T04:18:42.267Z,13.47
2019-05-10T04:21:12.676Z,13.74
2019-05-10T04:23:43.077Z,14.25
2019-05-10T04:26:13.383Z,14.61
2019-05-10T04:28:42.753Z,14.88
2019-05-10T04:31:12.143Z,15.17
2019-05-10T04:33:44.594Z,15.52
2019-05-10T04:36:14.015Z,16.32
2019-05-10T04:38:45.657Z,16.52
2019-05-10T04:41:18.114Z,16.91
2019-05-10T04:43:47.546Z,17.14
2019-05-10T04:46:20.602Z,18.31
2019-05-10T04:48:50.102Z,19.69
2019-05-10T04:51:22.450Z,23.39
2019-05-10T04:53:54.940Z,25.45
2019-05-10T04:56:25.347Z,27.21
2019-05-10T04:58:54.717Z,28.75
2019-05-10T05:01:24.114Z,29.88
2019-05-10T05:03:53.800Z,30.83
2019-05-10T05:06:25.599Z,31.27
2019-05-10T05:08:56.247Z,31.63
2019-05-10T05:11:26.631Z,31.07
2019-05-10T05:13:55.944Z,31.67
2019-05-10T05:16:25.408Z,32.26
2019-05-10T05:18:55.762Z,30.93
2019-05-10T05:21:25.062Z,31.22
2019-05-10T05:23:55.437Z,31.06
2019-05-10T05:26:24.945Z,34.25
2019-05-10T05:28:57.485Z,28.35
2019-05-10T05:31:26.859Z,23.10
2019-05-10T05:33:59.091Z,21.00
2019-05-10T05:36:28.434Z,19.58
2019-05-10T05:38:58.841Z,19.29
2019-05-10T05:41:31.857Z,20.22
2019-05-10T05:44:01.124Z,26.80
2019-05-10T05:46:30.895Z,29.66
2019-05-10T05:49:00.273Z,28.19
2019-05-10T05:51:30.965Z,32.31
2019-05-10T05:54:04.339Z,34.40
2019-05-10T05:56:34.980Z,35.03
2019-05-10T05:59:09.009Z,35.86
2019-05-10T06:01:39.545Z,36.83
2019-05-10T06:04:12.715Z,36.52
2019-05-10T06:06:41.128Z,36.35
2019-05-10T06:09:11.701Z,37.13
2019-05-10T06:11:42.641Z,38.35
2019-05-10T06:14:12.876Z,38.80
2019-05-10T06:16:45.265Z,37.38
2019-05-10T06:19:20.528Z,37.45
2019-05-10T06:21:45.547Z,32.84
2019-05-10T06:24:16.938Z,30.79
2019-05-10T06:26:47.575Z,30.45
2019-05-10T06:29:19.877Z,28.25
2019-05-10T06:31:50.055Z,34.59
2019-05-10T06:34:20.363Z,35.09
2019-05-10T06:36:49.774Z,29.87
2019-05-10T06:39:20.122Z,26.61
2019-05-10T06:41:55.595Z,32.27
2019-05-10T06:44:31.051Z,31.75
2019-05-10T06:47:02.177Z,34.22
2019-05-10T06:49:29.477Z,32.93
2019-05-10T06:51:59.105Z,39.89
2019-05-10T06:54:28.520Z,40.95
2019-05-10T06:57:00.486Z,41.53
2019-05-10T06:59:30.886Z,41.91
2019-05-10T07:02:01.652Z,44.03
2019-05-10T07:04:36.024Z,45.91
2019-05-10T07:07:03.262Z,46.64
2019-05-10T07:10:00.470Z,38.87
2019-05-10T07:12:09.393Z,42.90
2019-05-10T07:14:44.980Z,46.51
2019-05-10T07:17:09.732Z,40.18
2019-05-10T07:19:53.152Z,37.62
2019-05-10T07:22:13.775Z,33.67
2019-05-10T07:24:45.810Z,36.60
2019-05-10T07:27:16.106Z,44.69
2019-05-10T07:29:46.661Z,46.24
2019-05-10T07:32:21.183Z,42.07
2019-05-10T07:34:48.151Z,39.29
2019-05-10T07:37:19.404Z,37.92
2019-05-10T07:39:49.972Z,39.09
2019-05-10T07:42:21.880Z,44.22
2019-05-10T07:44:53.072Z,39.91
2019-05-10T07:47:30.250Z,32.24
2019-05-10T07:49:56.817Z,31.91
2019-05-10T07:52:27.266Z,29.70
2019-05-10T07:54:58.140Z,26.51
2019-05-10T07:57:27.210Z,28.44
2019-05-10T07:59:57.700Z,27.82
2019-05-10T08:02:28.889Z,27.55
2019-05-10T08:04:58.603Z,28.84
2019-05-10T08:07:29.548Z,30.35
2019-05-10T08:09:59.478Z,41.44
2019-05-10T08:12:29.017Z,46.22
2019-05-10T08:14:59.564Z,39.27
2019-05-10T08:17:29.542Z,34.13
2019-05-10T08:20:02.111Z,35.07
2019-05-10T08:22:41.392Z,38.17
2019-05-10T08:25:09.327Z,35.72
2019-05-10T08:27:50.072Z,42.24
2019-05-10T08:30:28.064Z,42.41
2019-05-10T08:32:53.045Z,30.64
2019-05-10T08:35:25.010Z,31.26
2019-05-10T08:37:57.566Z,33.95
2019-05-10T08:40:36.736Z,28.87
2019-05-10T08:43:08.491Z,30.89
2019-05-10T08:45:38.991Z,26.21
2019-05-10T08:48:07.847Z,23.12
2019-05-10T08:50:49.540Z,22.45
2019-05-10T08:53:11.147Z,22.23
2019-05-10T08:55:43.286Z,21.52
2019-05-10T08:58:13.220Z,21.48
2019-05-10T09:00:53.795Z,22.66
2019-05-10T09:03:18.508Z,23.98
2019-05-10T09:05:48.324Z,23.84
2019-05-10T09:08:20.395Z,22.68
2019-05-10T09:10:53.745Z,22.42
2019-05-10T09:13:28.807Z,25.70
2019-05-10T09:15:57.601Z,28.01
2019-05-10T09:18:30.390Z,28.55
2019-05-10T09:21:08.575Z,25.84
2019-05-10T09:23:32.687Z,24.77
2019-05-10T09:26:10.112Z,26.13
2019-05-10T09:28:33.565Z,24.32
2019-05-10T09:31:17.176Z,22.84
2019-05-10T09:33:41.030Z,21.72
2019-05-10T09:36:09.042Z,21.42
2019-05-10T09:38:44.153Z,21.06
2019-05-10T09:41:13.821Z,20.75
2019-05-10T09:43:48.812Z,20.57
2019-05-10T09:46:18.288Z,20.67
2019-05-10T09:48:54.559Z,20.74
2019-05-10T09:51:28.012Z,21.31
2019-05-10T09:53:49.973Z,21.55
2019-05-10T09:56:20.329Z,21.49
2019-05-10T09:58:49.851Z,21.90
2019-05-10T10:01:21.799Z,26.35
2019-05-10T10:03:54.884Z,28.92
2019-05-10T10:06:25.300Z,28.12
2019-05-10T10:08:57.774Z,26.01
2019-05-10T10:11:29.761Z,26.61
2019-05-10T10:14:02.116Z,24.61
2019-05-10T10:16:32.344Z,24.99
2019-05-10T10:19:01.707Z,25.93
2019-05-10T10:21:35.510Z,26.54
2019-05-10T10:24:12.210Z,26.58
2019-05-10T10:26:38.011Z,25.84
2019-05-10T10:29:11.580Z,24.99
2019-05-10T10:31:51.424Z,24.29
2019-05-10T10:34:13.560Z,23.61
2019-05-10T10:36:44.255Z,24.16
2019-05-10T10:39:13.877Z,24.60
2019-05-10T10:41:43.308Z,24.14
2019-05-10T10:44:12.597Z,24.57
2019-05-10T10:46:48.031Z,24.49
2019-05-10T10:49:17.764Z,24.64
2019-05-10T10:51:47.390Z,24.48
2019-05-10T10:54:22.399Z,24.42
2019-05-10T10:56:53.876Z,24.08
2019-05-10T10:59:24.395Z,24.71
2019-05-10T11:02:25.138Z,24.21
2019-05-10T11:04:27.132Z,24.07
2019-05-10T11:07:09.816Z,23.67
2019-05-10T11:09:31.165Z,24.19
2019-05-10T11:12:01.841Z,24.08
2019-05-10T11:14:40.095Z,23.88
2019-05-10T11:17:04.849Z,23.64
2019-05-10T11:19:37.248Z,23.43
2019-05-10T11:22:09.670Z,23.70
2019-05-10T11:24:40.035Z,23.35
2019-05-10T11:27:15.194Z,22.87
2019-05-10T11:29:44.394Z,22.72
2019-05-10T11:32:16.955Z,23.34
2019-05-10T11:34:47.297Z,22.94
2019-05-10T11:37:18.555Z,22.31
2019-05-10T11:39:50.502Z,21.58
2019-05-10T11:42:21.367Z,21.30
2019-05-10T11:44:54.635Z,21.06
2019-05-10T11:47:26.884Z,21.05
2019-05-10T11:49:54.339Z,21.84
2019-05-10T11:52:29.168Z,23.33
2019-05-10T11:54:57.441Z,24.18
2019-05-10T11:57:26.739Z,23.68
2019-05-10T11:59:57.137Z,23.61
2019-05-10T12:02:37.921Z,23.63
2019-05-10T12:05:03.602Z,23.70
2019-05-10T12:07:38.743Z,23.66
2019-05-10T12:10:08.458Z,23.39
2019-05-10T12:12:50.542Z,23.82
2019-05-10T12:15:04.623Z,24.38
2019-05-10T12:17:35.320Z,24.54
2019-05-10T12:20:07.859Z,24.13
2019-05-10T12:22:40.807Z,24.55
2019-05-10T12:25:31.873Z,24.36
2019-05-10T12:27:48.736Z,24.29
2019-05-10T12:30:17.327Z,24.32
2019-05-10T12:32:57.133Z,24.41
2019-05-10T12:35:21.288Z,24.35
2019-05-10T12:37:53.990Z,24.39
2019-05-10T12:40:24.162Z,23.70
2019-05-10T12:42:53.780Z,23.17
2019-05-10T12:45:24.345Z,22.83
2019-05-10T12:47:56.943Z,22.03
2019-05-10T12:50:27.778Z,21.33
2019-05-10T12:53:14.431Z,20.81
2019-05-10T12:55:31.608Z,20.44
2019-05-10T12:58:05.255Z,20.45
2019-05-10T13:00:36.090Z,20.36
2019-05-10T13:03:12.903Z,19.87
2019-05-10T13:05:51.892Z,19.53
2019-05-10T13:08:11.821Z,19.82
2019-05-10T13:10:44.196Z,19.81
2019-05-10T13:13:17.455Z,21.19
2019-05-10T13:15:50.480Z,22.12
2019-05-10T13:18:23.291Z,21.38
2019-05-10T13:20:53.215Z,20.61
2019-05-10T13:23:23.616Z,19.67
2019-05-10T13:25:53.018Z,19.70
2019-05-10T13:28:23.278Z,20.32
2019-05-10T13:30:52.683Z,21.08
2019-05-10T13:33:28.935Z,20.89
2019-05-10T13:35:56.527Z,20.93
2019-05-10T13:38:25.397Z,20.78
2019-05-10T13:40:56.164Z,21.15
2019-05-10T13:43:28.162Z,20.72
2019-05-10T13:45:57.065Z,21.06
2019-05-10T13:48:27.573Z,21.74
2019-05-10T13:50:57.054Z,21.81
2019-05-10T13:53:27.601Z,21.69
2019-05-10T13:55:57.015Z,20.66
2019-05-10T13:58:26.420Z,19.89
2019-05-10T14:00:55.958Z,19.45
2019-05-10T14:03:25.342Z,19.44
2019-05-10T14:05:56.866Z,19.07
2019-05-10T14:08:30.915Z,19.01
2019-05-10T14:11:01.507Z,18.70
2019-05-10T14:13:35.645Z,19.18
2019-05-10T14:16:04.173Z,18.88
2019-05-10T14:18:36.243Z,18.60
2019-05-10T14:21:05.702Z,18.56
2019-05-10T14:23:35.832Z,18.64
2019-05-10T14:26:09.411Z,18.86
2019-05-10T14:28:36.998Z,18.82
2019-05-10T14:31:09.935Z,18.71
2019-05-10T14:33:39.309Z,18.52
2019-05-10T14:36:09.767Z,18.70
2019-05-10T14:38:39.041Z,18.74
2019-05-10T14:41:10.749Z,18.71
2019-05-10T14:43:41.621Z,18.84
2019-05-10T14:46:13.964Z,18.98
2019-05-10T14:48:44.194Z,18.91
2019-05-10T14:51:14.391Z,19.14
2019-05-10T14:53:44.698Z,19.41
2019-05-10T14:56:15.331Z,19.32
2019-05-10T14:58:44.791Z,19.52
2019-05-10T15:01:14.180Z,19.44
2019-05-10T15:03:45.746Z,19.78
2019-05-10T15:06:13.912Z,19.76
2019-05-10T15:08:44.410Z,19.89
2019-05-10T15:11:14.713Z,20.29
2019-05-10T15:13:45.148Z,20.33
2019-05-10T15:16:25.711Z,20.51
2019-05-10T15:18:49.807Z,20.57
2019-05-10T15:21:19.304Z,20.39
2019-05-10T15:23:49.883Z,19.71
2019-05-10T15:26:19.170Z,19.16
2019-05-10T15:28:49.864Z,18.98
2019-05-10T15:31:23.794Z,19.04
2019-05-10T15:33:50.498Z,19.31
2019-05-10T15:36:23.544Z,19.75
2019-05-10T15:38:53.931Z,19.43
2019-05-10T15:41:24.111Z,19.08
2019-05-10T15:43:55.048Z,19.24
2019-05-10T15:46:35.447Z,19.26
2019-05-10T15:49:01.448Z,19.14
2019-05-10T15:51:36.243Z,19.31
2019-05-10T15:54:07.754Z,18.99
2019-05-10T15:56:41.807Z,19.00
2019-05-10T15:59:12.851Z,19.04
2019-05-10T16:01:45.189Z,19.12
2019-05-10T16:04:13.824Z,19.12
2019-05-10T16:06:44.269Z,19.14
2019-05-10T16:09:18.049Z,18.81
2019-05-10T16:11:47.548Z,18.55
2019-05-10T16:14:20.128Z,18.43
2019-05-10T16:16:50.993Z,18.23
2019-05-10T16:19:21.356Z,18.00
2019-05-10T16:21:54.312Z,18.18
2019-05-10T16:24:26.329Z,18.23
2019-05-10T16:27:00.152Z,18.56
2019-05-10T16:29:26.750Z,19.04
2019-05-10T16:31:56.022Z,19.56
2019-05-10T16:34:26.422Z,19.85
2019-05-10T16:36:57.013Z,19.33
2019-05-10T16:39:27.526Z,18.91
2019-05-10T16:41:57.838Z,18.68
2019-05-10T16:44:29.017Z,18.42
2019-05-10T16:46:58.490Z,18.30
2019-05-10T16:49:27.950Z,17.97
2019-05-10T16:51:56.836Z,17.90
2019-05-10T16:54:27.790Z,17.84
2019-05-10T16:57:01.102Z,17.77
2019-05-10T16:59:35.057Z,17.72
2019-05-10T17:02:06.274Z,17.89
2019-05-10T17:04:39.635Z,18.30
2019-05-10T17:07:12.931Z,18.41
2019-05-10T17:09:41.420Z,18.50
2019-05-10T17:12:13.764Z,18.33
2019-05-10T17:14:44.274Z,18.35
2019-05-10T17:17:16.436Z,18.35
2019-05-10T17:19:48.635Z,18.21
2019-05-10T17:22:17.904Z,18.34
2019-05-10T17:24:47.416Z,18.31
2019-05-10T17:27:17.890Z,17.98
2019-05-10T17:29:49.759Z,17.91
2019-05-10T17:32:24.636Z,17.88
2019-05-10T17:34:50.677Z,17.89
2019-05-10T17:37:20.059Z,17.89
2019-05-10T17:39:53.614Z,17.91
2019-05-10T17:42:22.599Z,17.94
2019-05-10T17:44:55.408Z,17.75
2019-05-10T17:47:27.060Z,17.76
2019-05-10T17:49:57.275Z,17.80
2019-05-10T17:52:26.743Z,17.82
2019-05-10T17:55:00.684Z,17.78
2019-05-10T17:57:31.842Z,17.70
2019-05-10T18:00:02.230Z,17.58
2019-05-10T18:02:32.948Z,17.54
2019-05-10T18:05:06.095Z,17.37
2019-05-10T18:07:35.431Z,17.40
2019-05-10T18:10:06.714Z,17.29
2019-05-10T18:12:37.311Z,17.11
2019-05-10T18:15:08.748Z,17.15
2019-05-10T18:17:41.124Z,17.18
2019-05-10T18:20:14.872Z,17.29
2019-05-10T18:22:45.464Z,17.37
2019-05-10T18:25:20.223Z,17.35
2019-05-10T18:27:46.554Z,17.34
2019-05-10T18:30:17.121Z,17.31
2019-05-10T18:32:47.527Z,17.22
2019-05-10T18:35:17.238Z,17.14
2019-05-10T18:37:46.685Z,17.08
2019-05-10T18:40:17.600Z,17.03
2019-05-10T18:42:48.001Z,16.97
2019-05-10T18:45:18.367Z,16.82
2019-05-10T18:47:47.938Z,16.61
2019-05-10T18:50:17.868Z,16.49
2019-05-10T18:52:48.274Z,16.44
2019-05-10T18:55:18.776Z,16.39
2019-05-10T18:57:50.665Z,16.44
2019-05-10T19:00:23.712Z,16.44
2019-05-10T19:02:55.625Z,16.45
2019-05-10T19:05:31.428Z,16.44
2019-05-10T19:08:04.252Z,16.42
2019-05-10T19:10:29.366Z,16.33
2019-05-10T19:13:01.267Z,16.26
2019-05-10T19:15:30.182Z,16.21
2019-05-10T19:18:00.608Z,16.06
2019-05-10T19:20:30.979Z,15.84
2019-05-10T19:23:00.400Z,15.74
2019-05-10T19:25:30.750Z,15.73
2019-05-10T19:28:02.649Z,15.56
2019-05-10T19:30:32.023Z,15.39
2019-05-10T19:33:02.378Z,15.26
2019-05-10T19:35:35.905Z,15.21
2019-05-10T19:38:02.843Z,15.11
2019-05-10T19:40:35.240Z,14.99
2019-05-10T19:43:05.790Z,14.94
2019-05-10T19:45:36.287Z,14.85
2019-05-10T19:48:06.597Z,14.79
2019-05-10T19:50:37.100Z,14.72
2019-05-10T19:53:07.621Z,14.63
2019-05-10T19:55:40.783Z,14.58
2019-05-10T19:58:10.242Z,14.49
2019-05-10T20:00:40.815Z,14.47
2019-05-10T20:03:13.410Z,14.41
2019-05-10T20:05:43.814Z,14.35
2019-05-10T20:08:15.269Z,14.30
2019-05-10T20:10:48.179Z,14.46
2019-05-10T20:13:18.602Z,14.71
2019-05-10T20:15:47.983Z,14.85
2019-05-10T20:18:17.562Z,14.83
2019-05-10T20:20:48.234Z,14.69
2019-05-10T20:23:18.859Z,14.68
2019-05-10T20:25:49.611Z,14.82
2019-05-10T20:28:21.711Z,14.96
2019-05-10T20:30:52.155Z,15.01
2019-05-10T20:33:22.570Z,15.00
2019-05-10T20:35:53.070Z,15.00
2019-05-10T20:38:25.013Z,15.02
2019-05-10T20:40:54.739Z,14.98
2019-05-10T20:43:25.120Z,15.02
2019-05-10T20:45:55.629Z,15.01
2019-05-10T20:48:26.036Z,14.92
2019-05-10T20:50:58.006Z,14.79
2019-05-10T20:53:28.411Z,14.72
2019-05-10T20:55:58.940Z,14.72
2019-05-10T20:58:28.285Z,14.68
2019-05-10T21:00:57.870Z,14.64
2019-05-10T21:03:28.886Z,14.52
2019-05-10T21:05:59.918Z,14.33
2019-05-10T21:08:29.508Z,14.39
2019-05-10T21:11:00.046Z,14.62
2019-05-10T21:13:30.527Z,14.83
2019-05-10T21:16:01.363Z,14.93
2019-05-10T21:18:30.744Z,14.93
2019-05-10T21:21:01.199Z,14.81
2019-05-10T21:23:31.765Z,14.80
2019-05-10T21:26:02.641Z,14.59
2019-05-10T21:28:32.986Z,14.74
2019-05-10T21:31:03.460Z,14.35
2019-05-10T21:33:35.530Z,14.30
2019-05-10T21:36:10.427Z,13.78
2019-05-10T21:38:41.840Z,13.51
2019-05-10T21:41:11.453Z,13.47
2019-05-10T21:43:40.976Z,13.63
2019-05-10T21:46:10.274Z,13.70
2019-05-10T21:48:42.660Z,13.89
2019-05-10T21:51:13.077Z,13.94
2019-05-10T21:53:43.479Z,14.04
2019-05-10T21:56:15.433Z,14.29
2019-05-10T21:58:44.852Z,14.31
2019-05-10T22:01:17.419Z,14.42
2019-05-10T22:03:46.919Z,14.45
2019-05-10T22:06:17.802Z,14.35
2019-05-10T22:08:49.743Z,14.35
2019-05-10T22:11:19.450Z,14.42
2019-05-10T22:13:49.793Z,14.38
2019-05-10T22:16:18.272Z,14.17
2019-05-10T22:18:48.433Z,14.12
2019-05-10T22:21:17.769Z,14.28
2019-05-10T22:23:48.130Z,14.24
2019-05-10T22:26:17.512Z,14.14
2019-05-10T22:28:48.427Z,13.99
2019-05-10T22:31:18.964Z,13.98
2019-05-10T22:33:48.517Z,14.00
2019-05-10T22:36:18.861Z,14.06
2019-05-10T22:39:05.325Z,14.31
2019-05-10T22:41:20.671Z,14.10
2019-05-10T22:43:50.184Z,13.94
2019-05-10T22:46:19.628Z,14.09
2019-05-10T22:48:49.010Z,13.93
2019-05-10T22:51:21.680Z,14.00
2019-05-10T22:53:59.543Z,14.23
2019-05-10T22:56:24.456Z,14.15
2019-05-10T22:58:54.852Z,13.91
2019-05-10T23:01:25.196Z,13.81
2019-05-10T23:03:54.678Z,13.92
2019-05-10T23:06:26.395Z,13.95
2019-05-10T23:08:55.788Z,14.10
2019-05-10T23:11:26.149Z,13.92
2019-05-10T23:13:55.512Z,14.04
2019-05-10T23:16:25.054Z,14.20
2019-05-10T23:18:55.606Z,14.35
2019-05-10T23:21:26.206Z,14.21
2019-05-10T23:23:56.715Z,14.25
2019-05-10T23:26:27.121Z,13.80
2019-05-10T23:28:56.500Z,13.69
2019-05-10T23:31:25.889Z,13.73
2019-05-10T23:33:58.442Z,13.73
2019-05-10T23:36:27.848Z,13.66
2019-05-10T23:38:58.217Z,13.55
2019-05-10T23:41:27.729Z,13.59
2019-05-10T23:43:58.290Z,13.68
2019-05-10T23:46:27.723Z,13.80
2019-05-10T23:49:01.505Z,13.73
2019-05-10T23:51:33.997Z,13.78
2019-05-10T23:54:03.367Z,13.75
2019-05-10T23:56:35.334Z,13.75
2019-05-10T23:59:04.735Z,13.88
